Time;durP1;ratioP1;P1;durP2;ratioP2;P2;SDS_P1;SDS_P2;PMS_P1;PMS_P2;Temp;Humidity;BMP_temperature;BMP_pressure;BME280_temperature;BME280_humidity;BME280_pressure;Samples;Min_cycle;Max_cycle;Signal;HPM_P1;HPM_P2
2023/10/04 00:02:10;;;;;;;11.90;5.80;;;;;;;19.77;45.34;102299.98;107071;1260;25347;-55
2023/10/04 00:04:38;;;;;;;14.00;7.20;;;;;;;19.78;45.35;102302.75;107112;1251;25318;-55
2023/10/04 00:07:09;;;;;;;12.50;6.80;;;;;;;19.78;45.34;102299.93;107079;1259;25477;-55
2023/10/04 00:09:36;;;;;;;11.80;6.60;;;;;;;19.78;45.46;102297.48;107157;1254;25356;-55
2023/10/04 00:12:03;;;;;;;12.20;7.30;;;;;;;19.78;45.61;102295.02;106883;1269;25573;-55
2023/10/04 00:14:30;;;;;;;11.40;6.30;;;;;;;19.77;45.61;102295.73;107089;1263;25349;-54
2023/10/04 00:16:59;;;;;;;11.60;7.00;;;;;;;19.77;45.75;102289.77;107035;1254;25468;-56
2023/10/04 00:19:28;;;;;;;14.20;7.00;;;;;;;19.76;45.85;102288.05;107075;1263;25381;-55
2023/10/04 00:21:54;;;;;;;14.60;7.20;;;;;;;19.74;45.94;102284.60;107088;1257;23876;-54
2023/10/04 00:24:21;;;;;;;10.10;6.20;;;;;;;19.73;46.13;102283.38;107067;1257;23282;-55
2023/10/04 00:26:48;;;;;;;13.00;7.20;;;;;;;19.73;46.29;102282.17;107118;1256;22622;-54
2023/10/04 00:29:17;;;;;;;13.40;7.30;;;;;;;19.74;46.33;102281.25;107067;1261;25328;-54
2023/10/04 00:31:47;;;;;;;15.60;7.00;;;;;;;19.74;46.43;102280.90;107175;1258;25321;-54
2023/10/04 00:34:14;;;;;;;11.00;7.00;;;;;;;19.75;46.49;102274.69;107140;1254;25375;-55
2023/10/04 00:36:43;;;;;;;13.60;7.10;;;;;;;19.77;46.52;102273.91;107156;1263;25350;-54
2023/10/04 00:39:13;;;;;;;12.70;7.30;;;;;;;19.78;46.53;102271.23;107164;1264;22592;-55
2023/10/04 00:41:40;;;;;;;12.10;7.30;;;;;;;19.79;46.51;102267.51;106885;1273;25321;-55
2023/10/04 00:44:09;;;;;;;14.40;6.90;;;;;;;19.79;46.62;102267.32;107174;1263;24323;-54
2023/10/04 00:46:38;;;;;;;13.20;7.20;;;;;;;19.80;46.56;102265.02;107090;1257;25472;-54
2023/10/04 00:49:06;;;;;;;12.70;7.50;;;;;;;19.79;46.79;102263.98;107186;1267;25322;-55
2023/10/04 00:51:36;;;;;;;11.80;6.70;;;;;;;19.87;46.69;102263.87;107128;1260;25337;-56
2023/10/04 00:54:07;;;;;;;12.80;7.20;;;;;;;19.90;46.77;102264.64;107084;1263;25340;-55
2023/10/04 00:56:36;;;;;;;14.20;7.80;;;;;;;19.88;47.00;102261.72;107181;1269;24184;-55
2023/10/04 00:59:03;;;;;;;12.10;7.10;;;;;;;19.85;47.24;102256.70;107227;1263;22534;-56
2023/10/04 01:01:31;;;;;;;13.20;6.80;;;;;;;19.85;47.39;102254.59;107176;1260;25319;-55
2023/10/04 01:04:00;;;;;;;13.60;7.20;;;;;;;19.88;47.56;102256.45;106948;1254;25387;-56
2023/10/04 01:06:30;;;;;;;13.50;7.60;;;;;;;19.89;47.64;102250.56;106250;1256;1003596;-55
2023/10/04 01:08:57;;;;;;;13.00;6.80;;;;;;;19.91;47.71;102248.22;106972;1257;25227;-55
2023/10/04 01:11:24;;;;;;;11.80;7.20;;;;;;;19.92;47.92;102244.83;106391;1271;25410;-56
2023/10/04 01:13:56;;;;;;;15.80;7.20;;;;;;;19.94;47.93;102246.00;106815;1274;25356;-55
2023/10/04 01:16:24;;;;;;;13.80;6.80;;;;;;;19.94;48.00;102244.77;107188;1260;25340;-56
2023/10/04 01:18:51;;;;;;;11.90;7.20;;;;;;;19.94;48.11;102241.59;107087;1264;25356;-58
2023/10/04 01:21:18;;;;;;;16.80;7.60;;;;;;;19.94;48.20;102243.00;107081;1256;22774;-55
2023/10/04 01:23:45;;;;;;;13.10;7.40;;;;;;;19.94;48.36;102242.80;106963;1269;25340;-55
2023/10/04 01:26:25;;;;;;;12.20;7.40;;;;;;;19.96;48.58;102240.81;107185;1266;25455;-55
2023/10/04 01:28:52;;;;;;;15.40;7.00;;;;;;;19.97;48.69;102234.59;106820;1274;25347;-56
2023/10/04 01:31:19;;;;;;;12.40;6.60;;;;;;;20.00;48.77;102234.49;107224;1257;25346;-55
2023/10/04 01:33:48;;;;;;;13.50;6.90;;;;;;;20.02;48.77;102232.84;107047;1266;25453;-57
2023/10/04 01:36:15;;;;;;;14.50;8.30;;;;;;;20.04;48.82;102230.09;107077;1263;24928;-56
2023/10/04 01:38:42;;;;;;;12.80;8.00;;;;;;;20.06;48.88;102228.80;104893;1262;1003832;-56
2023/10/04 01:41:10;;;;;;;13.80;7.50;;;;;;;20.06;48.88;102225.61;107000;1266;25322;-56
2023/10/04 01:43:38;;;;;;;13.50;7.50;;;;;;;20.07;48.76;102224.90;107164;1266;25322;-55
2023/10/04 01:46:05;;;;;;;14.00;7.00;;;;;;;20.06;48.65;102225.63;106319;1263;1003338;-55
2023/10/04 01:48:35;;;;;;;13.80;7.50;;;;;;;20.06;48.55;102221.75;107099;1261;25349;-56
2023/10/04 01:51:03;;;;;;;11.60;7.00;;;;;;;20.06;48.56;102220.17;107144;1266;25347;-56
2023/10/04 01:53:33;;;;;;;10.30;6.80;;;;;;;20.05;48.47;102220.04;107113;1261;25460;-56
2023/10/04 01:56:00;;;;;;;14.10;7.50;;;;;;;20.05;48.49;102212.46;107086;1260;25322;-56
2023/10/04 01:58:27;;;;;;;14.60;7.00;;;;;;;20.05;48.38;102212.29;107056;1256;22648;-56
2023/10/04 02:00:55;;;;;;;13.90;7.70;;;;;;;20.04;48.35;102211.44;106973;1260;25328;-56
2023/10/04 02:03:23;;;;;;;14.00;8.10;;;;;;;20.03;48.37;102210.59;107205;1254;25354;-56
2023/10/04 02:05:57;;;;;;;13.30;7.30;;;;;;;20.01;48.37;102210.67;107103;1254;25403;-56
2023/10/04 02:08:26;;;;;;;14.40;7.40;;;;;;;19.98;48.38;102206.20;107097;1263;25372;-56
2023/10/04 02:10:54;;;;;;;13.20;7.30;;;;;;;19.96;48.41;102206.29;106973;1258;22531;-56
2023/10/04 02:13:21;;;;;;;12.80;7.60;;;;;;;19.93;48.41;102204.46;107058;1273;22635;-56
2023/10/04 02:15:49;;;;;;;14.70;8.00;;;;;;;19.91;48.53;102205.41;107130;1263;25363;-56
2023/10/04 02:18:18;;;;;;;15.10;7.30;;;;;;;19.90;48.48;102206.16;106890;1274;25336;-56
2023/10/04 02:20:46;;;;;;;17.90;7.70;;;;;;;19.88;48.48;102199.55;107093;1257;25340;-56
2023/10/04 02:23:15;;;;;;;11.70;7.10;;;;;;;19.88;48.45;102199.39;106725;1257;1002957;-56
2023/10/04 02:25:42;;;;;;;14.40;7.90;;;;;;;19.88;48.39;102201.14;106895;1260;25407;-56
2023/10/04 02:28:17;;;;;;;14.30;7.40;;;;;;;19.88;48.37;102198.50;107104;1257;25322;-56
2023/10/04 02:30:48;;;;;;;18.30;8.70;;;;;;;19.87;48.43;102197.27;107051;1263;25350;-56
2023/10/04 02:33:16;;;;;;;15.80;8.50;;;;;;;19.86;48.36;102196.82;107179;1257;25470;-56
2023/10/04 02:35:44;;;;;;;12.10;7.10;;;;;;;19.84;48.38;102196.71;107190;1266;22622;-56
2023/10/04 02:38:31;;;;;;;13.30;7.20;;;;;;;19.81;48.43;102199.80;107087;1260;25360;-56
2023/10/04 02:40:59;;;;;;;12.60;7.10;;;;;;;19.78;48.50;102197.98;107226;1251;25321;-56
2023/10/04 02:43:27;;;;;;;11.10;6.90;;;;;;;19.77;48.66;102194.66;107139;1256;22643;-55
2023/10/04 02:45:58;;;;;;;13.90;7.00;;;;;;;19.78;48.69;102198.89;107105;1267;25331;-56
2023/10/04 02:48:25;;;;;;;16.30;8.70;;;;;;;19.78;48.79;102193.96;106959;1267;25430;-57
2023/10/04 02:50:52;;;;;;;15.00;7.80;;;;;;;19.79;48.91;102194.77;106844;1267;25335;-56
2023/10/04 02:53:24;;;;;;;13.00;6.50;;;;;;;19.81;48.99;102195.05;107099;1257;22651;-56
2023/10/04 02:55:56;;;;;;;17.40;8.30;;;;;;;19.81;48.94;102198.91;104957;1256;1003705;-57
2023/10/04 02:58:27;;;;;;;13.60;7.80;;;;;;;19.83;48.93;102197.11;107184;1261;22557;-56
2023/10/04 03:00:54;;;;;;;15.50;8.20;;;;;;;19.82;48.96;102198.02;107099;1263;25384;-56
2023/10/04 03:03:22;;;;;;;12.80;7.20;;;;;;;19.81;49.04;102196.84;107089;1254;25468;-56
2023/10/04 03:05:51;;;;;;;15.30;8.10;;;;;;;19.80;49.09;102194.77;107061;1264;25262;-54
2023/10/04 03:08:19;;;;;;;15.10;7.40;;;;;;;19.79;49.08;102199.34;107077;1258;23368;-55
2023/10/04 03:10:50;;;;;;;16.70;7.70;;;;;;;19.79;49.12;102199.70;107141;1251;24403;-54
2023/10/04 03:13:24;;;;;;;14.50;8.00;;;;;;;19.79;49.09;102199.17;106872;1271;22520;-54
2023/10/04 03:15:53;;;;;;;12.90;7.30;;;;;;;19.79;49.07;102202.33;107059;1257;25318;-55
2023/10/04 03:18:21;;;;;;;13.50;8.00;;;;;;;19.80;48.93;102200.20;107206;1252;25347;-55
2023/10/04 03:23:33;;;;;;;14.40;7.70;;;;;;;19.77;48.65;102201.89;107123;1257;25340;-55
2023/10/04 03:26:04;;;;;;;17.10;8.40;;;;;;;19.75;48.60;102199.17;107066;1257;22592;-55
2023/10/04 03:28:37;;;;;;;13.60;7.50;;;;;;;19.72;48.71;102194.70;107141;1261;25503;-55
2023/10/04 03:31:13;;;;;;;12.80;7.20;;;;;;;19.67;48.93;102196.28;107094;1261;25389;-57
2023/10/04 03:33:45;;;;;;;13.20;7.40;;;;;;;19.64;49.18;102193.40;107091;1263;25349;-56
2023/10/04 03:36:18;;;;;;;13.00;7.20;;;;;;;19.62;49.46;102194.73;107189;1256;25408;-55
2023/10/04 03:38:49;;;;;;;16.40;8.80;;;;;;;19.61;49.68;102190.18;106973;1267;25281;-55
2023/10/04 03:41:17;;;;;;;12.00;8.00;;;;;;;19.61;49.90;102188.23;107190;1260;25385;-55
2023/10/04 03:43:43;;;;;;;12.50;7.20;;;;;;;19.61;50.06;102185.07;107242;1260;22567;-55
2023/10/04 03:46:18;;;;;;;13.60;7.60;;;;;;;19.61;50.25;102186.30;107115;1254;25359;-55
2023/10/04 03:48:48;;;;;;;14.70;7.50;;;;;;;19.62;50.38;102185.73;106892;1267;22643;-55
2023/10/04 03:51:20;;;;;;;12.60;6.40;;;;;;;19.63;50.48;102186.39;106869;1268;25373;-55
2023/10/04 03:53:50;;;;;;;16.90;8.40;;;;;;;19.65;50.61;102188.42;107094;1266;25477;-55
2023/10/04 03:56:18;;;;;;;14.50;8.20;;;;;;;19.68;50.79;102188.71;107128;1263;22524;-55
2023/10/04 03:58:45;;;;;;;13.80;8.60;;;;;;;19.70;50.92;102190.71;106892;1270;25349;-53
2023/10/04 04:01:14;;;;;;;14.90;7.90;;;;;;;19.78;50.92;102197.11;107206;1264;25395;-55
2023/10/04 04:03:44;;;;;;;13.80;8.00;;;;;;;19.83;50.95;102196.56;107080;1257;25333;-56
2023/10/04 04:06:11;;;;;;;15.70;7.90;;;;;;;19.84;50.99;102196.16;107087;1254;25321;-55
2023/10/04 04:08:39;;;;;;;15.00;7.20;;;;;;;19.77;51.31;102196.27;106403;1256;1002908;-55
2023/10/04 04:11:06;;;;;;;13.70;7.90;;;;;;;19.78;51.34;102193.94;106987;1260;25350;-55
2023/10/04 04:13:36;;;;;;;17.00;7.60;;;;;;;19.81;51.46;102194.88;107097;1264;25366;-57
2023/10/04 04:16:10;;;;;;;11.40;7.00;;;;;;;19.83;51.44;102194.63;107026;1250;23902;-55
2023/10/04 04:18:39;;;;;;;13.40;7.70;;;;;;;19.84;51.44;102196.34;107151;1261;22534;-55
2023/10/04 04:21:07;;;;;;;12.40;7.60;;;;;;;19.86;51.48;102197.52;107016;1257;25322;-56
2023/10/04 04:23:35;;;;;;;11.60;7.40;;;;;;;19.88;51.49;102199.55;107065;1257;25343;-55
2023/10/04 04:26:05;;;;;;;12.10;6.90;;;;;;;19.89;51.54;102198.27;107091;1257;25321;-56
2023/10/04 04:28:36;;;;;;;;;;;;;;;19.98;51.39;102199.69;106889;1266;22518;-56
2023/10/04 04:31:20;;;;;;;17.00;7.20;;;;;;;20.10;51.22;102194.45;106841;1257;22545;-57
2023/10/04 04:33:47;;;;;;;11.30;7.00;;;;;;;20.14;51.22;102190.27;106823;1264;25420;-56
2023/10/04 04:36:27;;;;;;;12.50;7.20;;;;;;;20.14;51.26;102196.80;105992;1260;1003523;-55
2023/10/04 04:38:59;;;;;;;12.40;7.60;;;;;;;20.17;51.31;102196.85;106863;1264;25583;-55
2023/10/04 04:41:29;;;;;;;17.10;7.80;;;;;;;20.18;51.23;102199.98;106839;1273;22520;-55
2023/10/04 04:43:59;;;;;;;13.90;7.60;;;;;;;20.20;51.28;102202.38;106807;1270;24474;-54
2023/10/04 04:46:31;;;;;;;13.10;6.60;;;;;;;20.14;51.48;102206.31;106789;1267;25459;-55
2023/10/04 04:48:59;;;;;;;13.80;7.10;;;;;;;19.98;51.86;102206.58;106855;1257;24294;-54
2023/10/04 04:51:27;;;;;;;14.10;6.90;;;;;;;19.97;51.91;102210.83;106849;1257;25385;-55
2023/10/04 04:53:56;;;;;;;13.10;7.60;;;;;;;20.01;51.90;102215.77;106663;1270;25388;-55
2023/10/04 04:56:26;;;;;;;13.20;7.50;;;;;;;20.06;51.78;102218.60;106838;1257;25515;-55
2023/10/04 04:58:56;;;;;;;13.40;7.20;;;;;;;20.10;51.86;102222.29;106846;1257;25342;-55
2023/10/04 05:01:33;;;;;;;12.70;7.10;;;;;;;20.13;51.74;102222.02;106813;1264;24360;-56
2023/10/04 05:04:03;;;;;;;12.20;7.00;;;;;;;20.18;51.67;102224.45;106622;1257;24196;-55
2023/10/04 05:06:30;;;;;;;11.20;6.80;;;;;;;20.22;51.68;102221.69;106856;1267;22637;-56
2023/10/04 05:08:57;;;;;;;12.50;6.80;;;;;;;20.30;51.58;102228.08;106925;1258;25400;-56
2023/10/04 05:11:24;;;;;;;12.40;6.70;;;;;;;20.44;51.33;102225.23;107090;1257;25337;-56
2023/10/04 05:13:54;;;;;;;12.00;6.50;;;;;;;20.37;51.50;102226.91;107072;1260;22536;-56
2023/10/04 05:16:21;;;;;;;15.50;7.20;;;;;;;20.36;51.64;102227.66;107224;1250;25223;-54
2023/10/04 05:18:49;;;;;;;12.20;6.90;;;;;;;20.39;51.51;102231.77;107052;1263;22538;-56
2023/10/04 05:21:16;;;;;;;13.60;7.00;;;;;;;20.42;51.53;102229.70;107087;1251;24360;-55
2023/10/04 05:23:43;;;;;;;9.60;6.10;;;;;;;20.47;51.58;102229.34;107067;1254;25322;-55
2023/10/04 05:26:12;;;;;;;11.70;6.80;;;;;;;20.68;51.18;102230.63;107027;1254;25856;-55
2023/10/04 05:28:40;;;;;;;11.80;6.00;;;;;;;20.83;50.92;102228.59;106737;1257;25311;-55
2023/10/04 05:31:08;;;;;;;13.20;6.20;;;;;;;20.90;50.72;102229.88;106779;1257;25331;-55
2023/10/04 05:33:35;;;;;;;11.70;6.20;;;;;;;20.95;50.84;102232.98;106758;1261;25405;-55
2023/10/04 05:36:03;;;;;;;11.30;6.10;;;;;;;20.88;51.07;102235.57;107069;1261;25359;-55
2023/10/04 05:38:32;;;;;;;12.30;6.40;;;;;;;20.95;50.93;102236.37;107159;1254;25471;-55
2023/10/04 05:41:01;;;;;;;11.90;7.30;;;;;;;21.03;50.86;102233.73;106883;1258;25355;-55
2023/10/04 05:43:29;;;;;;;9.00;5.80;;;;;;;21.13;50.81;102235.83;106935;1267;22589;-55
2023/10/04 05:45:57;;;;;;;11.40;6.30;;;;;;;21.20;50.69;102237.64;107083;1257;25405;-55
2023/10/04 05:48:26;;;;;;;13.50;6.80;;;;;;;21.34;50.50;102239.14;107100;1254;25353;-55
2023/10/04 05:50:54;;;;;;;14.00;7.40;;;;;;;21.41;50.60;102240.09;107067;1255;25318;-55
2023/10/04 05:53:21;;;;;;;11.80;6.80;;;;;;;21.44;50.77;102239.77;107094;1250;25442;-55
2023/10/04 05:55:49;;;;;;;12.80;6.40;;;;;;;21.59;50.67;102241.41;107200;1260;22523;-56
2023/10/04 05:58:16;;;;;;;11.40;6.90;;;;;;;21.67;50.66;102241.58;107103;1255;25471;-54
2023/10/04 06:00:51;;;;;;;16.30;7.20;;;;;;;21.77;50.52;102246.98;107063;1254;25349;-57
2023/10/04 06:03:20;;;;;;;12.00;6.80;;;;;;;21.86;50.28;102249.04;107156;1251;25337;-56
2023/10/04 06:05:48;;;;;;;14.40;7.30;;;;;;;21.96;50.30;102250.36;107183;1261;25343;-56
2023/10/04 06:08:21;;;;;;;12.80;7.10;;;;;;;22.06;50.36;102249.39;107133;1257;23254;-56
2023/10/04 06:10:51;;;;;;;15.80;7.00;;;;;;;22.09;50.29;102253.45;107061;1257;25363;-57
2023/10/04 06:13:17;;;;;;;10.20;6.40;;;;;;;22.25;50.24;102253.23;107058;1256;25412;-57
2023/10/04 06:15:46;;;;;;;12.40;6.60;;;;;;;22.36;50.02;102248.98;107096;1255;25359;-56
2023/10/04 06:18:16;;;;;;;12.20;7.70;;;;;;;22.47;50.00;102248.46;107103;1250;24199;-56
2023/10/04 06:20:43;;;;;;;13.60;8.40;;;;;;;22.57;49.71;102252.06;107107;1250;25274;-56
2023/10/04 06:23:11;;;;;;;13.60;7.50;;;;;;;22.70;49.41;102253.80;107179;1251;25331;-56
2023/10/04 06:25:40;;;;;;;11.10;6.70;;;;;;;22.82;49.06;102253.73;106819;1270;25331;-55
2023/10/04 06:28:09;;;;;;;11.70;6.80;;;;;;;22.92;48.79;102253.38;107104;1256;24196;-56
2023/10/04 06:30:37;;;;;;;12.80;7.10;;;;;;;22.97;48.49;102251.20;107089;1263;25162;-55
2023/10/04 06:33:06;;;;;;;10.30;7.20;;;;;;;23.01;48.43;102255.23;107111;1257;25313;-55
2023/10/04 06:35:33;;;;;;;11.50;6.90;;;;;;;23.07;48.20;102256.38;107141;1251;22531;-56
2023/10/04 06:38:08;;;;;;;11.20;6.30;;;;;;;23.12;48.03;102255.73;107089;1263;25370;-55
2023/10/04 06:40:36;;;;;;;14.30;7.20;;;;;;;23.16;48.12;102254.98;107062;1254;25281;-56
2023/10/04 06:43:05;;;;;;;12.70;6.70;;;;;;;23.29;47.96;102248.86;107135;1253;22660;-56
2023/10/04 06:45:32;;;;;;;11.40;6.80;;;;;;;23.40;47.83;102252.19;106894;1267;22540;-57
2023/10/04 06:48:00;;;;;;;11.00;6.90;;;;;;;23.50;47.57;102247.77;107232;1257;25337;-56
2023/10/04 06:50:32;;;;;;;12.20;7.00;;;;;;;23.60;47.32;102252.55;107112;1254;25360;-56
2023/10/04 06:53:01;;;;;;;11.70;6.80;;;;;;;23.67;47.23;102254.68;106908;1268;25331;-56
2023/10/04 06:55:30;;;;;;;11.10;6.80;;;;;;;23.72;47.18;102253.52;106901;1260;25857;-55
2023/10/04 06:57:57;;;;;;;12.10;6.50;;;;;;;23.78;47.37;102254.42;107124;1250;25402;-56
2023/10/04 07:00:30;;;;;;;12.50;7.00;;;;;;;23.85;47.36;102253.86;107048;1254;25327;-55
2023/10/04 07:02:58;;;;;;;11.30;7.30;;;;;;;23.91;47.26;102255.14;107112;1254;25318;-56
2023/10/04 07:05:32;;;;;;;12.80;7.40;;;;;;;23.96;47.38;102253.61;106987;1250;22572;-56
2023/10/04 07:07:59;;;;;;;10.90;6.90;;;;;;;23.76;48.07;102255.98;106825;1257;22604;-56
2023/10/04 07:10:27;;;;;;;12.30;7.10;;;;;;;23.74;48.28;102254.86;106814;1250;23869;-56
2023/10/04 07:12:59;;;;;;;11.40;6.20;;;;;;;23.77;48.40;102255.91;107073;1266;26684;-56
2023/10/04 07:15:39;;;;;;;11.70;6.80;;;;;;;23.82;48.38;102256.36;106842;1256;25359;-56
2023/10/04 07:18:07;;;;;;;11.90;7.10;;;;;;;23.87;48.36;102260.13;106874;1253;22643;-56
2023/10/04 07:20:34;;;;;;;13.90;7.30;;;;;;;23.93;48.06;102260.34;106967;1266;25226;-56
2023/10/04 07:23:03;;;;;;;13.20;7.50;;;;;;;23.99;47.58;102260.36;107010;1254;25404;-57
2023/10/04 07:25:31;;;;;;;11.30;7.10;;;;;;;24.04;47.52;102259.57;107100;1250;25275;-55
2023/10/04 07:28:02;;;;;;;14.80;7.40;;;;;;;24.09;47.45;102263.05;106882;1267;25346;-57
2023/10/04 07:30:30;;;;;;;13.00;7.30;;;;;;;24.12;47.06;102262.88;107093;1254;22519;-56
2023/10/04 07:33:00;;;;;;;12.40;7.60;;;;;;;24.14;47.03;102262.42;107109;1254;23243;-56
2023/10/04 07:35:28;;;;;;;13.50;7.10;;;;;;;24.24;46.86;102264.02;107143;1250;25290;-56
2023/10/04 07:37:56;;;;;;;12.80;8.10;;;;;;;24.45;46.38;102261.58;107136;1257;25443;-56
2023/10/04 07:40:27;;;;;;;14.20;8.30;;;;;;;24.51;46.04;102263.23;107085;1263;22644;-56
2023/10/04 07:42:54;;;;;;;9.70;6.60;;;;;;;24.53;46.18;102265.92;107202;1250;25471;-55
2023/10/04 07:45:22;;;;;;;12.90;7.60;;;;;;;24.55;45.78;102268.64;107168;1266;25375;-56
2023/10/04 07:47:50;;;;;;;11.00;7.20;;;;;;;24.59;45.60;102263.12;107147;1250;25318;-56
2023/10/04 07:50:27;;;;;;;14.00;7.80;;;;;;;24.64;45.62;102268.16;107150;1266;25321;-56
2023/10/04 07:52:55;;;;;;;14.50;7.40;;;;;;;24.67;45.59;102266.88;107106;1251;25446;-57
2023/10/04 07:55:25;;;;;;;12.30;7.40;;;;;;;24.72;45.62;102267.69;107061;1251;25446;-56
2023/10/04 07:57:58;;;;;;;11.60;7.20;;;;;;;24.76;45.65;102269.79;107193;1254;25337;-57
2023/10/04 08:00:25;;;;;;;11.20;7.10;;;;;;;24.79;45.44;102265.33;107112;1260;22598;-56
2023/10/04 08:02:52;;;;;;;14.30;7.60;;;;;;;24.82;45.10;102264.30;107131;1269;25337;-57
2023/10/04 08:05:21;;;;;;;11.70;7.00;;;;;;;24.84;44.84;102264.34;107098;1270;25558;-56
2023/10/04 08:07:49;;;;;;;14.50;7.70;;;;;;;24.85;44.87;102263.42;107109;1263;25378;-57
2023/10/04 08:10:16;;;;;;;11.30;6.80;;;;;;;24.86;44.98;102267.98;107253;1251;25319;-56
2023/10/04 08:12:46;;;;;;;22.90;8.10;;;;;;;24.87;44.75;102266.28;107060;1256;25408;-57
2023/10/04 08:15:13;;;;;;;12.50;6.90;;;;;;;24.88;44.67;102265.33;107048;1254;25395;-57
2023/10/04 08:17:48;;;;;;;13.60;7.00;;;;;;;24.89;44.66;102265.25;107096;1256;25539;-56
2023/10/04 08:20:16;;;;;;;12.40;6.50;;;;;;;24.91;44.65;102263.42;106880;1257;25455;-56
2023/10/04 08:22:44;;;;;;;11.20;7.20;;;;;;;24.92;44.51;102264.44;106821;1266;25331;-56
2023/10/04 08:25:21;;;;;;;13.10;7.60;;;;;;;24.93;44.22;102262.75;106789;1266;25600;-55
2023/10/04 08:27:50;;;;;;;11.90;7.10;;;;;;;24.95;44.32;102268.50;106855;1267;25445;-56
2023/10/04 08:30:18;;;;;;;12.10;6.60;;;;;;;24.96;44.24;102263.80;106746;1271;26226;-57
2023/10/04 08:32:48;;;;;;;13.90;7.70;;;;;;;24.99;43.84;102263.45;106998;1266;22530;-56
2023/10/04 08:35:22;;;;;;;10.30;7.10;;;;;;;25.02;43.81;102252.09;107057;1266;22746;-56
2023/10/04 08:37:53;;;;;;;14.60;7.70;;;;;;;25.05;43.97;102251.20;107081;1266;25468;-56
2023/10/04 08:40:21;;;;;;;14.80;7.70;;;;;;;25.08;44.11;102246.44;107024;1266;24637;-57
2023/10/04 08:42:50;;;;;;;12.30;7.40;;;;;;;25.11;44.26;102247.33;107127;1266;22527;-57
2023/10/04 08:45:18;;;;;;;11.70;6.90;;;;;;;25.14;44.14;102251.02;107082;1266;25343;-57
2023/10/04 08:47:50;;;;;;;10.90;6.80;;;;;;;25.17;44.09;102249.27;107070;1266;22782;-57
2023/10/04 08:50:39;;;;;;;12.10;7.10;;;;;;;25.19;43.54;102245.22;106908;1267;25480;-57
2023/10/04 08:53:22;;;;;;;13.90;7.80;;;;;;;25.23;43.60;102244.46;107184;1266;25359;-57
2023/10/04 08:55:51;;;;;;;13.00;7.20;;;;;;;25.25;43.69;102232.27;106919;1267;25319;-57
2023/10/04 08:58:19;;;;;;;15.00;7.80;;;;;;;25.28;43.63;102235.46;107060;1266;25430;-57
2023/10/04 09:00:48;;;;;;;11.80;7.20;;;;;;;25.30;43.75;102236.90;106685;1274;25327;-55
2023/10/04 09:03:16;;;;;;;12.90;6.70;;;;;;;25.32;43.71;102236.40;106990;1269;25478;-58
2023/10/04 09:05:46;;;;;;;13.10;6.80;;;;;;;25.35;43.62;102235.71;107142;1260;22516;-58
2023/10/04 09:08:16;;;;;;;14.90;6.90;;;;;;;25.34;43.72;102231.55;107078;1266;25420;-57
2023/10/04 09:10:43;;;;;;;11.60;7.00;;;;;;;25.39;43.83;102230.86;107031;1266;24228;-57
2023/10/04 09:13:12;;;;;;;10.80;7.70;;;;;;;25.32;43.78;102229.70;107091;1266;25355;-56
2023/10/04 09:15:40;;;;;;;13.40;7.10;;;;;;;25.38;43.78;102226.45;107133;1267;24236;-57
2023/10/04 09:18:07;;;;;;;11.70;6.90;;;;;;;25.24;44.29;102225.20;106825;1266;23861;-57
2023/10/04 09:20:36;;;;;;;12.20;7.30;;;;;;;25.41;43.97;102215.66;106880;1266;25427;-56
2023/10/04 09:23:16;;;;;;;12.90;7.70;;;;;;;25.48;43.83;102215.96;106959;1266;25469;-56
2023/10/04 09:25:46;;;;;;;9.90;6.70;;;;;;;25.51;43.58;102212.52;106879;1266;23999;-56
2023/10/04 09:28:14;;;;;;;11.10;6.90;;;;;;;25.54;43.27;102209.35;106983;1266;25397;-55
2023/10/04 09:30:41;;;;;;;13.00;7.90;;;;;;;25.56;43.60;102204.95;106841;1270;23857;-55
2023/10/04 09:33:23;;;;;;;15.20;7.30;;;;;;;25.60;43.96;102207.73;107024;1270;25366;-56
2023/10/04 09:35:51;;;;;;;12.30;6.90;;;;;;;25.65;43.50;102211.01;107134;1266;22656;-56
2023/10/04 09:38:22;;;;;;;11.90;6.80;;;;;;;25.67;43.83;102207.81;106965;1269;25348;-56
2023/10/04 09:40:56;;;;;;;13.80;8.20;;;;;;;25.71;43.68;102208.63;106762;1270;25343;-57
2023/10/04 09:43:35;;;;;;;12.70;7.40;;;;;;;25.76;43.41;102206.20;107069;1266;25347;-56
2023/10/04 09:46:07;;;;;;;12.20;7.50;;;;;;;25.83;43.50;102205.05;107090;1266;25355;-56
2023/10/04 09:48:36;;;;;;;13.60;7.30;;;;;;;25.89;43.39;102201.31;107070;1268;24272;-56
2023/10/04 09:51:05;;;;;;;13.80;7.80;;;;;;;25.93;43.01;102194.11;106829;1267;24349;-56
2023/10/04 09:53:33;;;;;;;12.70;7.50;;;;;;;25.96;42.89;102191.95;106919;1267;22624;-56
2023/10/04 09:56:01;;;;;;;17.10;8.10;;;;;;;25.99;42.46;102193.36;107082;1266;24374;-56
2023/10/04 09:58:30;;;;;;;14.40;7.70;;;;;;;26.02;42.13;102184.85;107188;1266;25356;-56
2023/10/04 10:01:09;;;;;;;10.10;6.80;;;;;;;26.04;42.12;102179.58;107108;1270;25334;-57
2023/10/04 10:03:41;;;;;;;13.80;7.80;;;;;;;26.05;42.12;102179.09;106973;1269;24342;-56
2023/10/04 10:06:09;;;;;;;14.90;7.40;;;;;;;26.08;42.11;102176.80;107058;1266;25379;-56
2023/10/04 10:08:38;;;;;;;14.40;8.00;;;;;;;26.09;41.23;102176.02;107186;1266;22542;-56
2023/10/04 10:11:06;;;;;;;11.80;7.40;;;;;;;26.11;41.45;102173.63;107190;1267;25328;-56
2023/10/04 10:13:33;;;;;;;14.40;7.80;;;;;;;26.12;41.61;102172.33;107050;1267;25412;-55
2023/10/04 10:16:00;;;;;;;11.20;7.70;;;;;;;26.12;41.41;102169.30;107059;1267;24473;-56
2023/10/04 10:18:27;;;;;;;16.40;8.80;;;;;;;26.12;41.65;102171.02;107066;1267;22527;-55
2023/10/04 10:20:57;;;;;;;12.00;7.60;;;;;;;25.92;42.32;102170.16;107007;1267;25386;-56
2023/10/04 10:23:24;;;;;;;13.40;7.80;;;;;;;26.07;42.27;102167.08;106897;1269;24381;-56
2023/10/04 10:26:20;;;;;;;16.50;8.10;;;;;;;26.14;41.70;102170.77;107137;1266;25463;-56
2023/10/04 10:28:47;;;;;;;12.10;7.60;;;;;;;25.95;42.28;102169.27;107049;1266;25364;-56
2023/10/04 10:31:19;;;;;;;11.60;7.70;;;;;;;25.98;42.19;102172.85;107088;1266;25328;-56
2023/10/04 10:33:50;;;;;;;9.60;6.90;;;;;;;26.15;41.38;102172.45;107105;1267;22523;-57
2023/10/04 10:36:31;;;;;;;11.40;7.80;;;;;;;26.19;41.43;102166.34;106390;1267;1015205;-55
2023/10/04 10:38:59;;;;;;;13.20;7.50;;;;;;;26.19;41.68;102167.41;106878;1272;25392;-56
2023/10/04 10:41:30;;;;;;;16.60;7.30;;;;;;;26.21;41.03;102167.29;107066;1267;25356;-56
2023/10/04 10:44:30;;;;;;;15.10;8.30;;;;;;;26.22;40.64;102166.66;106954;1269;25573;-57
2023/10/04 10:47:14;;;;;;;11.50;7.20;;;;;;;26.13;40.67;102166.17;107018;1270;25551;-56
2023/10/04 10:49:52;;;;;;;10.10;6.80;;;;;;;26.10;40.88;102164.08;106869;1273;22688;-57
2023/10/04 10:52:21;;;;;;;11.80;7.60;;;;;;;26.23;40.71;102160.17;106927;1270;22536;-58
2023/10/04 10:54:48;;;;;;;16.90;7.80;;;;;;;26.26;40.73;102156.45;107077;1267;24203;-57
2023/10/04 10:57:28;;;;;;;11.60;7.30;;;;;;;26.29;40.74;102158.74;107090;1266;25362;-56
2023/10/04 10:59:57;;;;;;;13.70;7.70;;;;;;;26.30;40.07;102156.13;107185;1266;22526;-56
2023/10/04 11:02:24;;;;;;;13.20;7.20;;;;;;;26.32;39.76;102151.75;107093;1266;24223;-55
2023/10/04 11:04:52;;;;;;;13.60;7.90;;;;;;;26.34;40.14;102149.16;107080;1274;24257;-56
2023/10/04 11:07:21;;;;;;;17.00;7.50;;;;;;;26.35;40.42;102144.98;107155;1266;25442;-57
2023/10/04 11:09:50;;;;;;;13.30;8.00;;;;;;;26.37;40.53;102143.08;107114;1266;22510;-57
2023/10/04 11:12:21;;;;;;;13.10;7.10;;;;;;;26.38;40.40;102148.48;106854;1269;22535;-57
2023/10/04 11:14:51;;;;;;;14.30;7.30;;;;;;;26.40;39.88;102148.20;106769;1270;24336;-56
2023/10/04 11:17:22;;;;;;;13.30;7.80;;;;;;;26.42;40.11;102146.64;106843;1270;25462;-57
2023/10/04 11:19:52;;;;;;;12.50;7.20;;;;;;;26.43;40.50;102148.86;106653;1274;25629;-56
2023/10/04 11:22:19;;;;;;;14.70;7.80;;;;;;;26.44;40.73;102147.20;106829;1269;22585;-56
2023/10/04 11:24:47;;;;;;;15.40;8.00;;;;;;;26.45;40.68;102148.93;106826;1269;25364;-56